sensor_id;sensor_type;location;lat;lon;timestamp;temperature;humidity
64987;DHT22;67903;52.108;9.358;2023-03-12T00:01:23;-2.00;86.10
64987;DHT22;67903;52.108;9.358;2023-03-12T00:03:50;-2.10;86.10
64987;DHT22;67903;52.108;9.358;2023-03-12T00:06:19;-2.10;86.00
64987;DHT22;67903;52.108;9.358;2023-03-12T00:08:47;-2.10;86.20
64987;DHT22;67903;52.108;9.358;2023-03-12T00:11:17;-2.10;86.20
64987;DHT22;67903;52.108;9.358;2023-03-12T00:13:44;-2.10;86.30
64987;DHT22;67903;52.108;9.358;2023-03-12T00:16:14;-2.10;86.50
64987;DHT22;67903;52.108;9.358;2023-03-12T00:18:42;-2.10;86.40
64987;DHT22;67903;52.108;9.358;2023-03-12T00:21:10;-2.10;86.30
64987;DHT22;67903;52.108;9.358;2023-03-12T00:23:36;-2.10;86.10
64987;DHT22;67903;52.108;9.358;2023-03-12T00:26:09;-2.10;86.40
64987;DHT22;67903;52.108;9.358;2023-03-12T00:28:37;-2.10;86.50
64987;DHT22;67903;52.108;9.358;2023-03-12T00:31:17;-2.10;86.60
64987;DHT22;67903;52.108;9.358;2023-03-12T00:33:44;-2.20;86.60
64987;DHT22;67903;52.108;9.358;2023-03-12T00:36:11;-2.20;86.50
64987;DHT22;67903;52.108;9.358;2023-03-12T00:38:38;-2.10;86.40
64987;DHT22;67903;52.108;9.358;2023-03-12T00:41:06;-2.10;86.50
64987;DHT22;67903;52.108;9.358;2023-03-12T00:43:32;-2.20;86.30
64987;DHT22;67903;52.108;9.358;2023-03-12T00:45:59;-2.20;86.40
64987;DHT22;67903;52.108;9.358;2023-03-12T00:48:27;-2.20;86.40
64987;DHT22;67903;52.108;9.358;2023-03-12T00:50:53;-2.20;86.10
64987;DHT22;67903;52.108;9.358;2023-03-12T00:53:21;-2.20;86.00
64987;DHT22;67903;52.108;9.358;2023-03-12T00:55:48;-2.20;86.30
64987;DHT22;67903;52.108;9.358;2023-03-12T00:58:14;-2.30;86.30
64987;DHT22;67903;52.108;9.358;2023-03-12T01:00:41;-2.30;86.40
64987;DHT22;67903;52.108;9.358;2023-03-12T01:03:08;-2.30;86.20
64987;DHT22;67903;52.108;9.358;2023-03-12T01:05:36;-2.30;86.20
64987;DHT22;67903;52.108;9.358;2023-03-12T01:08:04;-2.30;86.30
64987;DHT22;67903;52.108;9.358;2023-03-12T01:10:31;-2.40;86.40
64987;DHT22;67903;52.108;9.358;2023-03-12T01:12:58;-2.40;86.40
64987;DHT22;67903;52.108;9.358;2023-03-12T01:15:26;-2.40;86.70
64987;DHT22;67903;52.108;9.358;2023-03-12T01:17:53;-2.40;86.50
64987;DHT22;67903;52.108;9.358;2023-03-12T01:20:20;-2.40;86.40
64987;DHT22;67903;52.108;9.358;2023-03-12T01:22:48;-2.40;86.60
64987;DHT22;67903;52.108;9.358;2023-03-12T01:25:16;-2.40;86.90
64987;DHT22;67903;52.108;9.358;2023-03-12T01:27:43;-2.30;86.90
64987;DHT22;67903;52.108;9.358;2023-03-12T01:30:10;-2.30;86.70
64987;DHT22;67903;52.108;9.358;2023-03-12T01:32:37;-2.30;86.60
64987;DHT22;67903;52.108;9.358;2023-03-12T01:35:04;-2.30;86.70
64987;DHT22;67903;52.108;9.358;2023-03-12T01:37:32;-2.30;86.40
64987;DHT22;67903;52.108;9.358;2023-03-12T01:39:59;-2.30;86.10
64987;DHT22;67903;52.108;9.358;2023-03-12T01:42:26;-2.30;85.80
64987;DHT22;67903;52.108;9.358;2023-03-12T01:44:59;-2.40;85.80
64987;DHT22;67903;52.108;9.358;2023-03-12T01:47:29;-2.50;85.90
64987;DHT22;67903;52.108;9.358;2023-03-12T01:50:01;-2.50;85.70
64987;DHT22;67903;52.108;9.358;2023-03-12T01:52:34;-2.60;86.00
64987;DHT22;67903;52.108;9.358;2023-03-12T01:55:12;-2.60;86.10
64987;DHT22;67903;52.108;9.358;2023-03-12T01:57:49;-2.70;86.40
64987;DHT22;67903;52.108;9.358;2023-03-12T02:00:24;-2.70;86.70
64987;DHT22;67903;52.108;9.358;2023-03-12T02:02:57;-2.70;86.70
64987;DHT22;67903;52.108;9.358;2023-03-12T02:05:53;-2.70;86.90
64987;DHT22;67903;52.108;9.358;2023-03-12T02:08:22;-2.70;87.10
64987;DHT22;67903;52.108;9.358;2023-03-12T02:10:50;-2.70;87.20
64987;DHT22;67903;52.108;9.358;2023-03-12T02:13:17;-2.60;87.20
64987;DHT22;67903;52.108;9.358;2023-03-12T02:15:46;-2.60;87.20
64987;DHT22;67903;52.108;9.358;2023-03-12T02:18:15;-2.60;87.10
64987;DHT22;67903;52.108;9.358;2023-03-12T02:20:52;-2.60;87.20
64987;DHT22;67903;52.108;9.358;2023-03-12T02:23:37;-2.60;87.20
64987;DHT22;67903;52.108;9.358;2023-03-12T02:26:08;-2.60;87.10
64987;DHT22;67903;52.108;9.358;2023-03-12T02:28:37;-2.60;87.10
64987;DHT22;67903;52.108;9.358;2023-03-12T02:31:13;-2.50;86.90
64987;DHT22;67903;52.108;9.358;2023-03-12T02:33:41;-2.60;86.90
64987;DHT22;67903;52.108;9.358;2023-03-12T02:36:08;-2.60;87.00
64987;DHT22;67903;52.108;9.358;2023-03-12T02:38:43;-2.70;87.20
64987;DHT22;67903;52.108;9.358;2023-03-12T02:46:34;-2.70;87.10
64987;DHT22;67903;52.108;9.358;2023-03-12T02:49:02;-2.70;86.90
64987;DHT22;67903;52.108;9.358;2023-03-12T02:51:29;-2.70;86.90
64987;DHT22;67903;52.108;9.358;2023-03-12T02:53:56;-2.80;87.00
64987;DHT22;67903;52.108;9.358;2023-03-12T02:56:25;-2.80;86.90
64987;DHT22;67903;52.108;9.358;2023-03-12T02:58:52;-2.70;86.90
64987;DHT22;67903;52.108;9.358;2023-03-12T03:01:20;-2.70;86.80
64987;DHT22;67903;52.108;9.358;2023-03-12T03:03:47;-2.70;86.40
64987;DHT22;67903;52.108;9.358;2023-03-12T03:06:15;-2.70;86.60
64987;DHT22;67903;52.108;9.358;2023-03-12T03:08:42;-2.70;86.60
64987;DHT22;67903;52.108;9.358;2023-03-12T03:11:10;-2.70;86.70
64987;DHT22;67903;52.108;9.358;2023-03-12T03:13:37;-2.80;86.70
64987;DHT22;67903;52.108;9.358;2023-03-12T03:16:05;-2.80;86.70
64987;DHT22;67903;52.108;9.358;2023-03-12T03:18:32;-2.80;87.00
64987;DHT22;67903;52.108;9.358;2023-03-12T03:21:04;-2.80;87.10
64987;DHT22;67903;52.108;9.358;2023-03-12T03:23:32;-2.80;87.10
64987;DHT22;67903;52.108;9.358;2023-03-12T03:26:00;-2.70;86.80
64987;DHT22;67903;52.108;9.358;2023-03-12T03:28:28;-2.80;86.80
64987;DHT22;67903;52.108;9.358;2023-03-12T03:30:57;-2.70;86.80
64987;DHT22;67903;52.108;9.358;2023-03-12T03:33:30;-2.70;86.70
64987;DHT22;67903;52.108;9.358;2023-03-12T03:35:58;-2.70;86.40
64987;DHT22;67903;52.108;9.358;2023-03-12T03:38:28;-2.70;86.40
64987;DHT22;67903;52.108;9.358;2023-03-12T03:40:56;-2.80;86.30
64987;DHT22;67903;52.108;9.358;2023-03-12T03:43:24;-2.80;86.20
64987;DHT22;67903;52.108;9.358;2023-03-12T03:46:04;-2.70;86.10
64987;DHT22;67903;52.108;9.358;2023-03-12T03:48:34;-2.80;86.30
64987;DHT22;67903;52.108;9.358;2023-03-12T03:51:03;-2.70;86.40
64987;DHT22;67903;52.108;9.358;2023-03-12T03:53:33;-2.80;86.30
64987;DHT22;67903;52.108;9.358;2023-03-12T03:56:14;-2.80;86.30
64987;DHT22;67903;52.108;9.358;2023-03-12T03:58:46;-2.80;86.30
64987;DHT22;67903;52.108;9.358;2023-03-12T04:01:14;-2.70;86.40
64987;DHT22;67903;52.108;9.358;2023-03-12T04:03:43;-2.70;86.30
64987;DHT22;67903;52.108;9.358;2023-03-12T04:06:10;-2.70;86.40
64987;DHT22;67903;52.108;9.358;2023-03-12T04:08:38;-2.60;86.40
64987;DHT22;67903;52.108;9.358;2023-03-12T04:11:11;-2.60;86.40
64987;DHT22;67903;52.108;9.358;2023-03-12T04:13:38;-2.50;86.10
64987;DHT22;67903;52.108;9.358;2023-03-12T04:16:07;-2.50;85.60
64987;DHT22;67903;52.108;9.358;2023-03-12T04:18:35;-2.50;85.50
64987;DHT22;67903;52.108;9.358;2023-03-12T04:21:04;-2.60;85.50
64987;DHT22;67903;52.108;9.358;2023-03-12T04:23:33;-2.40;85.60
64987;DHT22;67903;52.108;9.358;2023-03-12T04:25:59;-2.40;85.60
64987;DHT22;67903;52.108;9.358;2023-03-12T04:28:28;-2.40;85.60
64987;DHT22;67903;52.108;9.358;2023-03-12T04:31:05;-2.40;85.10
64987;DHT22;67903;52.108;9.358;2023-03-12T04:33:38;-2.40;85.30
64987;DHT22;67903;52.108;9.358;2023-03-12T04:36:06;-2.40;85.10
64987;DHT22;67903;52.108;9.358;2023-03-12T04:38:35;-2.40;84.80
64987;DHT22;67903;52.108;9.358;2023-03-12T04:41:10;-2.40;85.20
64987;DHT22;67903;52.108;9.358;2023-03-12T04:43:42;-2.40;85.30
64987;DHT22;67903;52.108;9.358;2023-03-12T04:46:09;-2.40;85.40
64987;DHT22;67903;52.108;9.358;2023-03-12T04:48:37;-2.40;85.40
64987;DHT22;67903;52.108;9.358;2023-03-12T04:51:05;-2.50;85.70
64987;DHT22;67903;52.108;9.358;2023-03-12T04:53:32;-2.50;85.70
64987;DHT22;67903;52.108;9.358;2023-03-12T04:56:00;-2.50;85.80
64987;DHT22;67903;52.108;9.358;2023-03-12T04:58:28;-2.50;85.00
64987;DHT22;67903;52.108;9.358;2023-03-12T05:00:55;-2.50;85.50
64987;DHT22;67903;52.108;9.358;2023-03-12T05:03:22;-2.50;85.30
64987;DHT22;67903;52.108;9.358;2023-03-12T05:05:49;-2.40;85.40
64987;DHT22;67903;52.108;9.358;2023-03-12T05:08:16;-2.40;85.50
64987;DHT22;67903;52.108;9.358;2023-03-12T05:10:43;-2.40;85.90
64987;DHT22;67903;52.108;9.358;2023-03-12T05:13:20;-2.40;86.10
64987;DHT22;67903;52.108;9.358;2023-03-12T05:15:50;-2.40;86.20
64987;DHT22;67903;52.108;9.358;2023-03-12T05:18:18;-2.40;86.30
64987;DHT22;67903;52.108;9.358;2023-03-12T05:21:10;-2.30;86.10
64987;DHT22;67903;52.108;9.358;2023-03-12T05:23:37;-2.20;85.30
64987;DHT22;67903;52.108;9.358;2023-03-12T05:26:05;-2.20;85.00
64987;DHT22;67903;52.108;9.358;2023-03-12T05:28:33;-2.10;84.50
64987;DHT22;67903;52.108;9.358;2023-03-12T05:31:08;-2.10;84.20
64987;DHT22;67903;52.108;9.358;2023-03-12T05:33:36;-2.10;84.90
64987;DHT22;67903;52.108;9.358;2023-03-12T05:36:04;-2.00;84.30
64987;DHT22;67903;52.108;9.358;2023-03-12T05:38:33;-2.10;84.50
64987;DHT22;67903;52.108;9.358;2023-03-12T05:41:01;-2.10;84.30
64987;DHT22;67903;52.108;9.358;2023-03-12T05:43:32;-1.90;84.30
64987;DHT22;67903;52.108;9.358;2023-03-12T05:46:02;-1.90;84.30
64987;DHT22;67903;52.108;9.358;2023-03-12T05:48:30;-1.80;84.00
64987;DHT22;67903;52.108;9.358;2023-03-12T05:50:57;-1.80;82.30
64987;DHT22;67903;52.108;9.358;2023-03-12T05:53:25;-1.70;81.30
64987;DHT22;67903;52.108;9.358;2023-03-12T05:55:52;-1.70;82.10
64987;DHT22;67903;52.108;9.358;2023-03-12T05:58:20;-1.70;82.30
64987;DHT22;67903;52.108;9.358;2023-03-12T06:00:47;-1.70;81.70
64987;DHT22;67903;52.108;9.358;2023-03-12T06:03:14;-1.70;82.10
64987;DHT22;67903;52.108;9.358;2023-03-12T06:05:43;-1.70;82.50
64987;DHT22;67903;52.108;9.358;2023-03-12T06:08:10;-1.60;82.90
64987;DHT22;67903;52.108;9.358;2023-03-12T06:10:39;-1.60;82.80
64987;DHT22;67903;52.108;9.358;2023-03-12T06:13:06;-1.50;82.40
64987;DHT22;67903;52.108;9.358;2023-03-12T06:15:34;-1.50;81.80
64987;DHT22;67903;52.108;9.358;2023-03-12T06:18:03;-1.50;82.30
64987;DHT22;67903;52.108;9.358;2023-03-12T06:20:31;-1.40;81.70
64987;DHT22;67903;52.108;9.358;2023-03-12T06:22:58;-1.30;82.10
64987;DHT22;67903;52.108;9.358;2023-03-12T06:25:25;-1.30;81.90
64987;DHT22;67903;52.108;9.358;2023-03-12T06:27:51;-1.30;81.90
64987;DHT22;67903;52.108;9.358;2023-03-12T06:30:19;-1.20;80.30
64987;DHT22;67903;52.108;9.358;2023-03-12T06:32:46;-1.10;79.90
64987;DHT22;67903;52.108;9.358;2023-03-12T06:35:12;-1.10;80.50
64987;DHT22;67903;52.108;9.358;2023-03-12T06:37:39;-1.10;80.70
64987;DHT22;67903;52.108;9.358;2023-03-12T06:40:06;-1.00;80.50
64987;DHT22;67903;52.108;9.358;2023-03-12T06:42:36;-1.00;79.80
64987;DHT22;67903;52.108;9.358;2023-03-12T06:45:03;-0.90;79.90
64987;DHT22;67903;52.108;9.358;2023-03-12T06:47:30;-0.80;80.00
64987;DHT22;67903;52.108;9.358;2023-03-12T06:49:57;-0.70;79.30
64987;DHT22;67903;52.108;9.358;2023-03-12T06:52:25;-0.70;78.10
64987;DHT22;67903;52.108;9.358;2023-03-12T06:54:52;-0.60;78.70
64987;DHT22;67903;52.108;9.358;2023-03-12T06:57:19;-0.60;77.50
64987;DHT22;67903;52.108;9.358;2023-03-12T06:59:47;-0.50;78.10
64987;DHT22;67903;52.108;9.358;2023-03-12T07:02:16;-0.40;77.80
64987;DHT22;67903;52.108;9.358;2023-03-12T07:04:43;-0.30;75.80
64987;DHT22;67903;52.108;9.358;2023-03-12T07:07:10;-0.20;75.10
64987;DHT22;67903;52.108;9.358;2023-03-12T07:09:37;-0.10;75.90
64987;DHT22;67903;52.108;9.358;2023-03-12T07:12:04;0.00;76.20
64987;DHT22;67903;52.108;9.358;2023-03-12T07:14:32;0.00;75.50
64987;DHT22;67903;52.108;9.358;2023-03-12T07:16:59;0.10;74.80
64987;DHT22;67903;52.108;9.358;2023-03-12T07:19:27;0.20;74.00
64987;DHT22;67903;52.108;9.358;2023-03-12T07:21:56;0.20;74.20
64987;DHT22;67903;52.108;9.358;2023-03-12T07:24:23;0.30;74.10
64987;DHT22;67903;52.108;9.358;2023-03-12T07:26:49;0.50;73.20
64987;DHT22;67903;52.108;9.358;2023-03-12T07:29:16;0.60;73.80
64987;DHT22;67903;52.108;9.358;2023-03-12T07:31:43;0.60;72.90
64987;DHT22;67903;52.108;9.358;2023-03-12T07:34:10;0.60;71.00
64987;DHT22;67903;52.108;9.358;2023-03-12T07:36:37;0.60;71.30
64987;DHT22;67903;52.108;9.358;2023-03-12T07:39:04;0.60;71.10
64987;DHT22;67903;52.108;9.358;2023-03-12T07:41:31;0.60;70.60
64987;DHT22;67903;52.108;9.358;2023-03-12T07:43:58;0.80;70.90
64987;DHT22;67903;52.108;9.358;2023-03-12T07:46:25;0.80;70.60
64987;DHT22;67903;52.108;9.358;2023-03-12T07:48:52;0.70;69.30
64987;DHT22;67903;52.108;9.358;2023-03-12T07:51:19;0.60;69.30
64987;DHT22;67903;52.108;9.358;2023-03-12T07:53:46;0.70;69.10
64987;DHT22;67903;52.108;9.358;2023-03-12T07:56:13;0.80;68.70
64987;DHT22;67903;52.108;9.358;2023-03-12T07:58:40;0.80;68.30
64987;DHT22;67903;52.108;9.358;2023-03-12T08:01:07;0.90;68.80
64987;DHT22;67903;52.108;9.358;2023-03-12T08:03:35;1.00;68.60
64987;DHT22;67903;52.108;9.358;2023-03-12T08:06:03;1.00;68.20
64987;DHT22;67903;52.108;9.358;2023-03-12T08:08:31;1.00;68.00
64987;DHT22;67903;52.108;9.358;2023-03-12T08:10:59;1.20;69.00
64987;DHT22;67903;52.108;9.358;2023-03-12T08:13:26;1.40;68.60
64987;DHT22;67903;52.108;9.358;2023-03-12T08:15:53;1.50;67.50
64987;DHT22;67903;52.108;9.358;2023-03-12T08:18:21;1.50;67.30
64987;DHT22;67903;52.108;9.358;2023-03-12T08:20:52;1.50;67.00
64987;DHT22;67903;52.108;9.358;2023-03-12T08:23:20;1.50;67.00
64987;DHT22;67903;52.108;9.358;2023-03-12T08:25:48;1.70;67.00
64987;DHT22;67903;52.108;9.358;2023-03-12T08:28:16;1.80;66.60
64987;DHT22;67903;52.108;9.358;2023-03-12T08:30:52;1.80;66.20
64987;DHT22;67903;52.108;9.358;2023-03-12T08:33:19;1.80;65.10
64987;DHT22;67903;52.108;9.358;2023-03-12T08:35:47;1.70;65.20
64987;DHT22;67903;52.108;9.358;2023-03-12T08:38:15;1.70;65.90
64987;DHT22;67903;52.108;9.358;2023-03-12T08:40:41;1.80;64.70
64987;DHT22;67903;52.108;9.358;2023-03-12T08:43:08;1.80;65.50
64987;DHT22;67903;52.108;9.358;2023-03-12T08:45:35;1.80;64.40
64987;DHT22;67903;52.108;9.358;2023-03-12T08:48:03;1.90;65.00
64987;DHT22;67903;52.108;9.358;2023-03-12T08:50:30;1.90;65.20
64987;DHT22;67903;52.108;9.358;2023-03-12T08:52:58;2.00;66.00
64987;DHT22;67903;52.108;9.358;2023-03-12T08:55:26;2.20;64.50
64987;DHT22;67903;52.108;9.358;2023-03-12T08:57:56;2.20;64.50
64987;DHT22;67903;52.108;9.358;2023-03-12T09:00:23;2.20;63.90
64987;DHT22;67903;52.108;9.358;2023-03-12T09:02:50;2.30;64.70
64987;DHT22;67903;52.108;9.358;2023-03-12T09:05:19;2.50;63.80
64987;DHT22;67903;52.108;9.358;2023-03-12T09:07:46;2.60;63.20
64987;DHT22;67903;52.108;9.358;2023-03-12T09:10:13;2.60;63.70
64987;DHT22;67903;52.108;9.358;2023-03-12T09:12:39;2.50;64.00
64987;DHT22;67903;52.108;9.358;2023-03-12T09:15:07;2.60;63.80
64987;DHT22;67903;52.108;9.358;2023-03-12T09:17:34;2.70;64.20
64987;DHT22;67903;52.108;9.358;2023-03-12T09:20:03;3.00;64.20
64987;DHT22;67903;52.108;9.358;2023-03-12T09:22:35;3.10;63.50
64987;DHT22;67903;52.108;9.358;2023-03-12T09:25:03;3.30;63.20
64987;DHT22;67903;52.108;9.358;2023-03-12T09:27:37;3.30;61.20
64987;DHT22;67903;52.108;9.358;2023-03-12T09:30:06;3.30;62.60
64987;DHT22;67903;52.108;9.358;2023-03-12T09:32:34;3.50;62.30
64987;DHT22;67903;52.108;9.358;2023-03-12T09:35:01;3.60;62.90
64987;DHT22;67903;52.108;9.358;2023-03-12T09:37:28;3.60;60.80
64987;DHT22;67903;52.108;9.358;2023-03-12T09:39:55;3.70;62.50
64987;DHT22;67903;52.108;9.358;2023-03-12T09:42:25;3.70;60.00
64987;DHT22;67903;52.108;9.358;2023-03-12T09:44:55;3.70;60.30
64987;DHT22;67903;52.108;9.358;2023-03-12T09:47:24;3.60;61.10
64987;DHT22;67903;52.108;9.358;2023-03-12T09:49:58;3.70;61.20
64987;DHT22;67903;52.108;9.358;2023-03-12T09:52:39;3.90;61.50
64987;DHT22;67903;52.108;9.358;2023-03-12T09:55:15;3.90;60.70
64987;DHT22;67903;52.108;9.358;2023-03-12T09:57:43;3.70;61.20
64987;DHT22;67903;52.108;9.358;2023-03-12T10:00:12;3.80;61.60
64987;DHT22;67903;52.108;9.358;2023-03-12T10:05:33;3.70;63.00
64987;DHT22;67903;52.108;9.358;2023-03-12T10:08:04;3.60;62.70
64987;DHT22;67903;52.108;9.358;2023-03-12T10:13:44;3.50;65.20
64987;DHT22;67903;52.108;9.358;2023-03-12T10:19:34;3.50;66.90
64987;DHT22;67903;52.108;9.358;2023-03-12T10:27:38;3.30;69.80
64987;DHT22;67903;52.108;9.358;2023-03-12T10:30:19;3.40;70.40
64987;DHT22;67903;52.108;9.358;2023-03-12T10:32:50;3.30;71.70
64987;DHT22;67903;52.108;9.358;2023-03-12T10:35:21;3.20;72.80
64987;DHT22;67903;52.108;9.358;2023-03-12T10:38:03;3.10;73.30
64987;DHT22;67903;52.108;9.358;2023-03-12T10:40:34;3.20;74.10
64987;DHT22;67903;52.108;9.358;2023-03-12T10:43:02;3.30;74.10
64987;DHT22;67903;52.108;9.358;2023-03-12T10:45:55;3.40;74.00
64987;DHT22;67903;52.108;9.358;2023-03-12T10:48:25;3.30;74.50
64987;DHT22;67903;52.108;9.358;2023-03-12T10:53:31;3.30;75.00
64987;DHT22;67903;52.108;9.358;2023-03-12T10:56:06;3.20;74.50
64987;DHT22;67903;52.108;9.358;2023-03-12T10:58:40;3.10;74.20
64987;DHT22;67903;52.108;9.358;2023-03-12T11:01:23;3.00;75.00
64987;DHT22;67903;52.108;9.358;2023-03-12T11:03:51;2.80;76.10
64987;DHT22;67903;52.108;9.358;2023-03-12T11:06:25;2.80;76.60
64987;DHT22;67903;52.108;9.358;2023-03-12T11:11:44;2.80;76.10
64987;DHT22;67903;52.108;9.358;2023-03-12T11:14:17;2.80;76.40
64987;DHT22;67903;52.108;9.358;2023-03-12T11:16:44;2.90;76.50
64987;DHT22;67903;52.108;9.358;2023-03-12T11:19:28;2.80;76.60
64987;DHT22;67903;52.108;9.358;2023-03-12T11:22:01;2.70;76.50
64987;DHT22;67903;52.108;9.358;2023-03-12T11:24:28;2.60;76.70
64987;DHT22;67903;52.108;9.358;2023-03-12T11:27:05;2.70;77.30
64987;DHT22;67903;52.108;9.358;2023-03-12T11:29:42;2.80;77.30
64987;DHT22;67903;52.108;9.358;2023-03-12T11:32:18;2.80;77.10
64987;DHT22;67903;52.108;9.358;2023-03-12T11:34:46;2.70;77.50
64987;DHT22;67903;52.108;9.358;2023-03-12T11:45:43;2.50;79.70
64987;DHT22;67903;52.108;9.358;2023-03-12T11:56:20;2.90;78.90
64987;DHT22;67903;52.108;9.358;2023-03-12T11:59:20;2.90;79.30
64987;DHT22;67903;52.108;9.358;2023-03-12T12:07:01;2.80;79.90
64987;DHT22;67903;52.108;9.358;2023-03-12T12:24:04;2.50;81.50
64987;DHT22;67903;52.108;9.358;2023-03-12T12:30:04;2.50;81.70
64987;DHT22;67903;52.108;9.358;2023-03-12T12:35:41;2.60;81.70
64987;DHT22;67903;52.108;9.358;2023-03-12T12:38:38;2.60;82.10
64987;DHT22;67903;52.108;9.358;2023-03-12T12:41:12;2.60;81.90
64987;DHT22;67903;52.108;9.358;2023-03-12T12:43:45;2.50;82.20
64987;DHT22;67903;52.108;9.358;2023-03-12T12:46:26;2.50;82.60
64987;DHT22;67903;52.108;9.358;2023-03-12T12:48:56;2.50;82.30
64987;DHT22;67903;52.108;9.358;2023-03-12T12:51:29;2.50;82.80
64987;DHT22;67903;52.108;9.358;2023-03-12T12:57:40;2.70;83.00
64987;DHT22;67903;52.108;9.358;2023-03-12T13:00:18;2.70;83.00
64987;DHT22;67903;52.108;9.358;2023-03-12T13:02:48;2.80;83.00
64987;DHT22;67903;52.108;9.358;2023-03-12T13:05:39;2.70;83.30
64987;DHT22;67903;52.108;9.358;2023-03-12T13:08:06;2.50;83.70
64987;DHT22;67903;52.108;9.358;2023-03-12T13:10:38;2.60;84.20
64987;DHT22;67903;52.108;9.358;2023-03-12T13:13:23;2.70;84.40
64987;DHT22;67903;52.108;9.358;2023-03-12T13:16:46;2.80;84.10
64987;DHT22;67903;52.108;9.358;2023-03-12T13:19:25;2.80;84.10
64987;DHT22;67903;52.108;9.358;2023-03-12T13:22:09;2.70;84.90
64987;DHT22;67903;52.108;9.358;2023-03-12T13:27:44;2.80;84.70
64987;DHT22;67903;52.108;9.358;2023-03-12T13:35:35;2.90;84.80
64987;DHT22;67903;52.108;9.358;2023-03-12T13:38:10;2.90;84.60
64987;DHT22;67903;52.108;9.358;2023-03-12T13:41:00;3.00;84.40
64987;DHT22;67903;52.108;9.358;2023-03-12T13:43:32;2.90;84.60
64987;DHT22;67903;52.108;9.358;2023-03-12T13:48:46;3.00;84.80
64987;DHT22;67903;52.108;9.358;2023-03-12T13:51:20;3.10;84.90
64987;DHT22;67903;52.108;9.358;2023-03-12T13:53:52;3.00;84.60
64987;DHT22;67903;52.108;9.358;2023-03-12T13:56:29;2.90;85.40
64987;DHT22;67903;52.108;9.358;2023-03-12T13:59:00;2.90;85.20
64987;DHT22;67903;52.108;9.358;2023-03-12T14:01:41;2.90;85.50
64987;DHT22;67903;52.108;9.358;2023-03-12T14:04:33;2.90;85.70
64987;DHT22;67903;52.108;9.358;2023-03-12T14:07:21;3.00;85.80
64987;DHT22;67903;52.108;9.358;2023-03-12T14:10:02;3.00;85.90
64987;DHT22;67903;52.108;9.358;2023-03-12T14:12:42;3.00;86.10
64987;DHT22;67903;52.108;9.358;2023-03-12T14:15:23;3.00;86.30
64987;DHT22;67903;52.108;9.358;2023-03-12T14:18:00;3.00;86.40
64987;DHT22;67903;52.108;9.358;2023-03-12T14:20:27;3.00;86.80
64987;DHT22;67903;52.108;9.358;2023-03-12T14:23:01;3.00;86.90
64987;DHT22;67903;52.108;9.358;2023-03-12T14:25:38;3.00;87.20
64987;DHT22;67903;52.108;9.358;2023-03-12T14:28:17;3.00;87.10
64987;DHT22;67903;52.108;9.358;2023-03-12T14:30:56;3.00;87.30
64987;DHT22;67903;52.108;9.358;2023-03-12T14:33:26;3.00;87.50
64987;DHT22;67903;52.108;9.358;2023-03-12T14:36:14;3.10;87.70
64987;DHT22;67903;52.108;9.358;2023-03-12T14:38:45;3.10;88.00
64987;DHT22;67903;52.108;9.358;2023-03-12T14:41:24;3.10;88.00
64987;DHT22;67903;52.108;9.358;2023-03-12T14:43:53;3.10;88.10
64987;DHT22;67903;52.108;9.358;2023-03-12T14:46:29;3.10;88.00
64987;DHT22;67903;52.108;9.358;2023-03-12T14:48:56;3.10;88.30
64987;DHT22;67903;52.108;9.358;2023-03-12T14:51:28;3.20;88.60
64987;DHT22;67903;52.108;9.358;2023-03-12T14:54:01;3.30;88.80
64987;DHT22;67903;52.108;9.358;2023-03-12T14:56:31;3.30;88.90
64987;DHT22;67903;52.108;9.358;2023-03-12T14:59:19;3.40;88.70
64987;DHT22;67903;52.108;9.358;2023-03-12T15:01:46;3.50;88.60
64987;DHT22;67903;52.108;9.358;2023-03-12T15:04:16;3.50;88.50
64987;DHT22;67903;52.108;9.358;2023-03-12T15:06:50;3.60;88.70
64987;DHT22;67903;52.108;9.358;2023-03-12T15:09:26;3.70;88.70
64987;DHT22;67903;52.108;9.358;2023-03-12T15:12:05;3.70;88.60
64987;DHT22;67903;52.108;9.358;2023-03-12T15:14:37;3.80;88.90
64987;DHT22;67903;52.108;9.358;2023-03-12T15:17:05;4.00;89.00
64987;DHT22;67903;52.108;9.358;2023-03-12T15:19:38;4.30;88.60
64987;DHT22;67903;52.108;9.358;2023-03-12T15:22:16;4.50;87.90
64987;DHT22;67903;52.108;9.358;2023-03-12T15:24:43;4.60;87.50
64987;DHT22;67903;52.108;9.358;2023-03-12T15:29:57;4.60;87.40
64987;DHT22;67903;52.108;9.358;2023-03-12T15:32:25;4.50;87.80
64987;DHT22;67903;52.108;9.358;2023-03-12T15:34:53;4.50;88.20
64987;DHT22;67903;52.108;9.358;2023-03-12T15:37:32;4.60;88.20
64987;DHT22;67903;52.108;9.358;2023-03-12T15:40:25;4.70;88.00
64987;DHT22;67903;52.108;9.358;2023-03-12T15:42:54;4.70;88.20
64987;DHT22;67903;52.108;9.358;2023-03-12T15:45:33;4.70;88.40
64987;DHT22;67903;52.108;9.358;2023-03-12T15:48:01;4.90;88.40
64987;DHT22;67903;52.108;9.358;2023-03-12T15:50:50;4.90;88.90
64987;DHT22;67903;52.108;9.358;2023-03-12T15:58:36;5.00;88.90
64987;DHT22;67903;52.108;9.358;2023-03-12T16:01:12;5.00;89.40
64987;DHT22;67903;52.108;9.358;2023-03-12T16:03:40;5.00;89.60
64987;DHT22;67903;52.108;9.358;2023-03-12T16:06:16;5.00;89.90
64987;DHT22;67903;52.108;9.358;2023-03-12T16:08:46;5.10;89.70
64987;DHT22;67903;52.108;9.358;2023-03-12T16:11:17;5.30;89.30
64987;DHT22;67903;52.108;9.358;2023-03-12T16:13:46;5.30;89.10
64987;DHT22;67903;52.108;9.358;2023-03-12T16:16:14;5.30;89.20
64987;DHT22;67903;52.108;9.358;2023-03-12T16:18:42;5.30;89.10
64987;DHT22;67903;52.108;9.358;2023-03-12T16:21:10;5.30;89.10
64987;DHT22;67903;52.108;9.358;2023-03-12T16:23:37;5.30;89.20
64987;DHT22;67903;52.108;9.358;2023-03-12T16:26:04;5.50;89.00
64987;DHT22;67903;52.108;9.358;2023-03-12T16:28:33;5.50;89.10
64987;DHT22;67903;52.108;9.358;2023-03-12T16:31:01;5.50;89.10
64987;DHT22;67903;52.108;9.358;2023-03-12T16:33:28;5.50;89.00
64987;DHT22;67903;52.108;9.358;2023-03-12T16:35:55;5.50;89.00
64987;DHT22;67903;52.108;9.358;2023-03-12T16:38:22;5.50;89.30
64987;DHT22;67903;52.108;9.358;2023-03-12T16:40:50;5.50;89.20
64987;DHT22;67903;52.108;9.358;2023-03-12T16:43:20;5.50;89.10
64987;DHT22;67903;52.108;9.358;2023-03-12T16:45:49;5.60;89.40
64987;DHT22;67903;52.108;9.358;2023-03-12T16:48:20;5.60;89.60
64987;DHT22;67903;52.108;9.358;2023-03-12T16:50:50;5.50;89.60
64987;DHT22;67903;52.108;9.358;2023-03-12T16:53:17;5.50;89.70
64987;DHT22;67903;52.108;9.358;2023-03-12T16:55:59;5.60;89.70
64987;DHT22;67903;52.108;9.358;2023-03-12T16:58:27;5.60;89.90
64987;DHT22;67903;52.108;9.358;2023-03-12T17:00:55;5.50;89.80
64987;DHT22;67903;52.108;9.358;2023-03-12T17:05:53;5.70;90.20
64987;DHT22;67903;52.108;9.358;2023-03-12T17:08:19;5.70;90.00
64987;DHT22;67903;52.108;9.358;2023-03-12T17:10:46;6.00;89.50
64987;DHT22;67903;52.108;9.358;2023-03-12T17:13:25;6.00;89.30
64987;DHT22;67903;52.108;9.358;2023-03-12T17:15:53;6.20;88.90
64987;DHT22;67903;52.108;9.358;2023-03-12T17:18:20;6.20;88.90
64987;DHT22;67903;52.108;9.358;2023-03-12T17:20:48;6.10;89.00
64987;DHT22;67903;52.108;9.358;2023-03-12T17:23:18;6.10;89.20
64987;DHT22;67903;52.108;9.358;2023-03-12T17:25:45;6.10;89.30
64987;DHT22;67903;52.108;9.358;2023-03-12T17:28:12;6.20;89.20
64987;DHT22;67903;52.108;9.358;2023-03-12T17:30:41;6.20;89.20
64987;DHT22;67903;52.108;9.358;2023-03-12T17:33:11;6.20;89.00
64987;DHT22;67903;52.108;9.358;2023-03-12T17:35:38;6.30;89.00